• Join FlightAware (Why Join?)
  • Login
  • US Flag 
08:20AM EDT


 

Airport Tracker/Info


-or-


 

Live Flight TrackerFlight Track Log ✈ UAL1177 ✈ 15-May-2013 ✈ KPIT - KDEN

Flight Track Log - Related Links

Times and Time Zones

All times are in EDT time to prevent confusion due to time zone crossing. See the UAL1177 flight status page for this flight to view local times or setup timezone preferences in your user account.

Time Position Orientation Groundspeed Altitude Reporting Facility
EDT Latitude Longitude Course Direction KTS MPH feet Rate Location/Type
04:52PM 40.5717 -80.6463 282° West  Level FlightAware Approximate
04:53PM 40.6016 -80.7896 288° West  Level FlightAware Approximate
04:54PM 40.6332 -80.9324 285° West  Level FlightAware Approximate
04:55PM 40.6555 -81.0775 285° West  Level FlightAware Approximate
04:56PM 40.6844 -81.2215 285° West  Level FlightAware Approximate
04:56PM 40.6410 -80.9460 285° West 351 404 16,400  Level FlightAware
04:57PM 40.7132 -81.3657 285° West  Level FlightAware Approximate
04:57PM 40.6590 -81.0310 286° West 357 411 17,900  Level FlightAware
04:58PM 40.6780 -81.1260 285° West 369 425 19,200 1,680 Climbing FlightAware
04:58PM 40.6960 -81.2150 285° West 377 434 20,300 1,800 Climbing FlightAware
04:59PM 40.7160 -81.3130 285° West 378 435 21,800 1,800 Climbing FlightAware
05:00PM 40.7350 -81.4020 286° West 382 440 22,900 1,500 Climbing FlightAware
05:01PM 40.7600 -81.4910 290° West 390 449 23,800 1,260 Climbing FlightAware
05:01PM 40.7880 -81.5790 293° West 398 458 24,600 1,200 Climbing FlightAware
05:02PM 40.8220 -81.6830 293° West 407 468 25,500 1,080 Climbing FlightAware
05:03PM 40.8520 -81.7760 293° West 414 476 26,200 1,020 Climbing FlightAware
05:03PM 40.8850 -81.8790 293° West 420 483 27,000 1,020 Climbing FlightAware
05:04PM 40.9140 -81.9710 293° West 424 488 27,700 1,200 Climbing FlightAware
05:05PM 40.9440 -82.0680 292° West 422 486 28,600 1,380 Climbing FlightAware
05:05PM 40.9590 -82.1840 280° West 418 481 29,700 1,320 Climbing FlightAware
05:06PM 40.9700 -82.2840 278° West 417 480 30,500 1,080 Climbing FlightAware
05:07PM 40.9800 -82.3930 277° West 417 480 31,300 960 Climbing FlightAware
05:08PM 40.9900 -82.4940 278° West 417 480 31,900 480 Climbing FlightAware
05:08PM 41.0010 -82.5990 278° West 418 481 32,000 60 Climbing FlightAware
05:09PM 41.0120 -82.7130 277° West 417 480 32,000 240 Level FlightAware
05:10PM 41.0210 -82.8120 277° West 416 479 32,400 480 Climbing FlightAware
05:10PM 41.0300 -82.9070 277° West 415 478 32,700 180 Climbing FlightAware
05:11PM 41.0380 -82.9930 277° West 415 478 32,700 960 Level FlightAware
05:12PM 41.0490 -83.1060 277° West 414 476 34,000 900 Climbing FlightAware
05:12PM 41.0590 -83.2200 277° West 413 475 34,000  Level FlightAware
05:13PM 41.0700 -83.3390 277° West 411 473 34,000  Level FlightAware
05:14PM 41.0800 -83.4430 277° West 411 473 34,000  Level FlightAware
05:15PM 41.0890 -83.5540 276° West 411 473 34,000  Level FlightAware
05:15PM 41.0980 -83.6530 277° West 411 473 34,000  Level FlightAware
05:16PM 41.1080 -83.7650 277° West 413 475 34,000  Level FlightAware
05:17PM 41.1160 -83.8640 276° West 414 476 34,000  Level FlightAware
05:17PM 41.1250 -83.9650 277° West 414 476 34,000  Level FlightAware
05:18PM 41.1340 -84.0680 277° West 415 478 34,000  Level FlightAware
05:19PM 41.1440 -84.1830 277° West 415 478 34,000  Level FlightAware
05:19PM 41.1520 -84.2840 276° West 415 478 34,000  Level FlightAware
05:20PM 41.1610 -84.3990 276° West 416 479 34,000  Level FlightAware
05:21PM 41.1690 -84.4950 276° West 415 478 34,000  Level FlightAware
05:22PM 41.1780 -84.6130 276° West 414 476 34,000  Level FlightAware
05:22PM 41.1860 -84.7090 276° West 412 474 34,000  Level FlightAware
05:23PM 41.1940 -84.8080 276° West 410 472 34,000  Level FlightAware
05:24PM 41.2020 -84.9210 275° West 409 471 34,000  Level FlightAware
05:24PM 41.2090 -85.0120 276° West 408 470 34,000  Level FlightAware
05:25PM 41.2170 -85.1110 276° West 408 470 34,000  Level FlightAware
05:26PM 41.2250 -85.2200 276° West 412 474 34,000  Level FlightAware
05:26PM 41.2320 -85.3190 275° West 412 474 34,000  Level FlightAware
05:27PM 41.2410 -85.4450 275° West 413 475 34,000  Level FlightAware
05:28PM 41.2480 -85.5440 275° West 413 475 34,000  Level FlightAware
05:28PM 41.2560 -85.6490 276° West 413 475 34,000  Level FlightAware
05:29PM 41.2640 -85.7620 275° West 413 475 34,000  Level FlightAware
05:30PM 41.2700 -85.8570 275° West 413 475 34,000  Level FlightAware
05:31PM 41.2790 -85.9790 276° West 414 476 34,000  Level FlightAware
05:31PM 41.2850 -86.0770 275° West 414 476 34,000  Level FlightAware
05:32PM 41.2920 -86.1750 275° West 414 476 34,000  Level FlightAware
05:33PM 41.2990 -86.2920 275° West 413 475 34,000  Level FlightAware
05:34PM 41.3080 -86.4340 275° West 413 475 34,000  Level FlightAware
05:34PM 41.3150 -86.5350 275° West 414 476 34,000  Level FlightAware
05:35PM 41.3230 -86.6650 275° West 415 478 34,000  Level FlightAware
05:36PM 41.3290 -86.7670 275° West 416 479 34,000  Level FlightAware
05:36PM 41.3340 -86.8600 274° West 416 479 34,000  Level FlightAware
05:37PM 41.3420 -86.9810 275° West 418 481 34,000  Level FlightAware
05:38PM 41.3480 -87.0840 274° West 417 480 34,000  Level FlightAware
05:39PM 41.3530 -87.1750 274° West 416 479 34,000  Level FlightAware
05:39PM 41.3600 -87.2970 274° West 414 476 34,000  Level FlightAware
05:40PM 41.3650 -87.3950 274° West 412 474 34,000  Level FlightAware
05:41PM 41.3710 -87.5110 274° West 410 472 34,000  Level FlightAware
05:41PM 41.3760 -87.6050 274° West 409 471 34,000  Level FlightAware
05:42PM 41.3820 -87.7160 274° West 410 472 34,000  Level FlightAware
05:43PM 41.3860 -87.7900 274° West 409 471 34,000  Level FlightAware
05:43PM 41.3920 -87.9020 274° West 409 471 34,000  Level FlightAware
05:44PM 41.3970 -88.0030 274° West 411 473 34,000  Level FlightAware
05:45PM 41.4020 -88.1040 274° West 414 476 34,000  Level FlightAware
05:45PM 41.4070 -88.2200 273° West 416 479 34,000  Level FlightAware
05:46PM 41.4120 -88.3240 274° West 416 479 34,000  Level FlightAware
05:47PM 41.4170 -88.4370 273° West 416 479 34,000  Level FlightAware
05:47PM 41.4220 -88.5380 274° West 416 479 34,000  Level FlightAware
05:48PM 41.4270 -88.6390 274° West 416 479 34,000  Level FlightAware
05:49PM 41.4310 -88.7410 273° West 416 479 34,000  Level FlightAware
05:50PM 41.4360 -88.8550 273° West 416 479 34,000  Level FlightAware
05:50PM 41.4410 -88.9770 273° West 417 480 34,000  Level FlightAware
05:51PM 41.4450 -89.0760 273° West 418 481 34,000  Level FlightAware
05:52PM 41.4490 -89.1830 273° West 418 481 34,000  Level FlightAware
05:52PM 41.4530 -89.2950 273° West 419 482 34,000  Level FlightAware
05:53PM 41.4570 -89.3990 273° West 419 482 34,000  Level FlightAware
05:54PM 41.4610 -89.4980 273° West 419 482 34,000  Level FlightAware
05:54PM 41.4650 -89.6040 273° West 420 483 34,000  Level FlightAware
05:55PM 41.4690 -89.7190 273° West 419 482 34,000  Level FlightAware
05:56PM 41.4720 -89.8230 272° West 418 481 34,000  Level FlightAware
05:57PM 41.4760 -89.9370 273° West 413 475 34,000  Level FlightAware
05:57PM 41.4750 -90.0780 270° West 411 473 34,000  Level FlightAware
05:58PM 41.4690 -90.1780 265° West 411 473 34,000  Level FlightAware
05:59PM 41.4640 -90.2800 266° West 414 476 34,000  Level FlightAware
06:00PM 41.4580 -90.3880 266° West 418 481 34,000  Level FlightAware
06:00PM 41.4520 -90.4780 265° West 419 482 34,000  Level FlightAware
06:01PM 41.4420 -90.6500 266° West 421 484 34,000  Level FlightAware
06:02PM 41.4360 -90.7530 266° West 422 486 34,000  Level FlightAware
06:03PM 41.4300 -90.8580 266° West 421 484 34,000  Level FlightAware
06:03PM 41.4230 -90.9750 265° West 421 484 34,000  Level FlightAware
06:04PM 41.4170 -91.0760 266° West 421 484 34,000  Level FlightAware
06:05PM 41.4100 -91.1770 265° West 423 487 34,000  Level FlightAware
06:05PM 41.4030 -91.2900 265° West 425 489 34,000  Level FlightAware
06:06PM 41.3970 -91.3890 265° West 427 491 34,000  Level FlightAware
06:07PM 41.3890 -91.5140 265° West 427 491 34,000  Level FlightAware
06:07PM 41.3830 -91.5980 265° West 427 491 34,000  Level FlightAware
06:08PM 41.3760 -91.7120 265° West 428 493 34,000  Level FlightAware
06:09PM 41.3670 -91.8220 264° West 428 493 34,000  Level FlightAware
06:10PM 41.3540 -92.0190 265° West 430 495 34,000  Level FlightAware
06:11PM 41.3460 -92.1350 265° West 428 493 34,000  Level FlightAware
06:12PM 41.3360 -92.2730 265° West 428 493 34,000  Level FlightAware
06:12PM 41.3290 -92.3620 264° West 428 493 34,000  Level FlightAware
06:13PM 41.3190 -92.5030 265° West 427 491 34,000  Level FlightAware
06:14PM 41.3100 -92.6220 264° West 426 490 34,000  Level FlightAware
06:14PM 41.3020 -92.7270 264° West 425 489 34,000  Level FlightAware
06:15PM 41.2950 -92.8300 265° West 425 489 34,000  Level FlightAware
06:16PM 41.2860 -92.9430 264° West 424 488 34,000  Level FlightAware
06:17PM 41.2780 -93.0480 264° West 425 489 34,000  Level FlightAware
06:17PM 41.2690 -93.1500 263° West 425 489 34,000  Level FlightAware
06:18PM 41.2600 -93.2640 264° West 426 490 34,000  Level FlightAware
06:19PM 41.2520 -93.3690 264° West 426 490 34,000  Level FlightAware
06:19PM 41.2430 -93.4680 263° West 427 491 34,000  Level FlightAware
06:20PM 41.2340 -93.5720 263° West 427 491 34,000  Level FlightAware
06:21PM 41.2260 -93.6610 263° West 427 491 34,000  Level FlightAware
06:21PM 41.2160 -93.7710 263° West 427 491 34,000  Level FlightAware
06:22PM 41.2050 -93.9110 264° West 428 493 34,000  Level FlightAware
06:23PM 41.1970 -94.0000 263° West 428 493 34,000  Level FlightAware
06:23PM 41.1890 -94.0890 263° West 428 493 34,000  Level FlightAware
06:24PM 41.1810 -94.1770 263° West 428 493 34,000  Level FlightAware
06:25PM 41.1680 -94.3350 264° West 429 494 34,000  Level FlightAware
06:26PM 41.1600 -94.4240 263° West 429 494 34,000  Level FlightAware
06:26PM 41.1510 -94.5130 262° West 429 494 34,000  Level FlightAware
06:27PM 41.1410 -94.6240 263° West 429 494 34,000  Level FlightAware
06:28PM 41.1330 -94.7130 263° West 429 494 34,000  Level FlightAware
06:28PM 41.1250 -94.8020 263° West 429 494 34,000  Level FlightAware
06:29PM 41.1160 -94.8910 262° West 429 494 34,000  Level FlightAware
06:30PM 41.1080 -94.9800 263° West 429 494 34,000  Level FlightAware
06:31PM 41.0980 -95.0910 263° West 429 494 34,000  Level FlightAware
06:31PM 41.0900 -95.1800 263° West 429 494 34,000  Level FlightAware
06:32PM 41.0810 -95.2690 262° West 429 494 34,000  Level FlightAware
06:33PM 41.0730 -95.3570 263° West 429 494 34,000  Level FlightAware
06:33PM 41.0630 -95.4680 263° West 429 494 34,000  Level FlightAware
06:34PM 41.0550 -95.5570 263° West 429 494 34,000  Level FlightAware
06:35PM 41.0122 -95.9197 263° West 430 495 34,000  Level Minneapolis Center
06:36PM 40.9914 -96.1097 262° West 431 496 34,000  Level Minneapolis Center
06:37PM 40.9783 -96.2667 264° West 429 494 34,000  Level Minneapolis Center
06:38PM 40.9756 -96.4253 269° West 428 493 34,000  Level Minneapolis Center
06:39PM 40.9717 -96.5842 268° West 430 495 34,000  Level Minneapolis Center
06:40PM 40.9669 -96.7444 268° West 433 498 34,000  Level Minneapolis Center
06:41PM 40.9625 -96.9036 268° West 433 498 34,000  Level Minneapolis Center
06:42PM 40.9567 -97.0633 267° West 433 498 34,000  Level Minneapolis Center
06:43PM 40.9500 -97.2547 267° West 434 499 34,000  Level Minneapolis Center
06:44PM 40.9458 -97.4086 268° West 434 499 34,000  Level Minneapolis Center
06:45PM 40.9400 -97.5672 267° West 432 497 34,000  Level Minneapolis Center
06:46PM 40.9344 -97.7250 267° West 430 495 34,000  Level Minneapolis Center
06:48PM 40.9278 -97.8822 267° West 429 494 34,000  Level Minneapolis Center
06:49PM 40.9203 -98.0717 267° West 429 494 34,000  Level Minneapolis Center
06:50PM 40.9136 -98.2281 267° West 426 490 34,000  Level Minneapolis Center
06:51PM 40.9067 -98.3856 267° West 426 490 34,000  Level Minneapolis Center
06:52PM 40.9000 -98.5464 267° West 429 494 34,000  Level Minneapolis Center
06:53PM 40.8925 -98.7047 266° West 431 496 34,000  Level Minneapolis Center
06:54PM 40.8836 -98.8631 266° West 432 497 34,000  Level Minneapolis Center
06:55PM 40.8769 -99.0214 267° West 432 497 34,000  Level Minneapolis Center
06:56PM 40.9089 -99.1764 285° West 438 504 34,000  Level Denver Center
06:57PM 40.9856 -99.3022 309° West 437 503 34,000  Level Denver Center
06:58PM 41.0756 -99.4542 308° West 435 501 34,000  Level Denver Center
06:59PM 41.1481 -99.5772 308° West 432 497 34,000  Level Denver Center
07:00PM 41.2192 -99.6964 308° West 431 496 34,000  Level Denver Center
07:01PM 41.2989 -99.8364 307° West 428 493 34,000  Level Denver Center
07:02PM 41.3669 -99.9544 308° West 425 489 34,000  Level Denver Center
07:03PM 41.4169 -100.1064 294° West 422 486 34,000  Level Denver Center
07:04PM 41.3836 -100.2503 253° West 425 489 34,000  Level Denver Center
07:05PM 41.3378 -100.4094 249° West 430 495 34,000  Level Denver Center
07:06PM 41.2300 -100.4514 196° South 438 504 34,000  Level Denver Center
07:07PM 41.0922 -100.4647 184° South 441 507 34,000  Level Denver Center
07:08PM 40.9750 -100.4839 187° South 444 511 34,000  Level Denver Center
07:09PM 40.9328 -100.6083 246° West 424 488 34,000  Level Denver Center
07:11PM 40.9333 -100.8017 270° West  Level FlightAware Approximate
07:11PM 41.1519 -100.7203 270° West 434 499 34,000  Level Denver Center
07:12PM 41.2847 -100.7506 350° North 435 501 34,000  Level Denver Center
07:18PM 41.4160 -101.3190 350° North 424 488 34,000  Level FlightAware
07:18PM 41.3880 -101.4010 246° West 424 488 34,000  Level FlightAware
07:19PM 41.3726 -101.4500 247° West 423 487 34,000  Level FlightAware ADS-B
07:19PM 41.3470 -101.5270 246° West 421 484 34,000  Level FlightAware ADS-B
07:20PM 41.3233 -101.5970 246° West 420 483 34,000  Level FlightAware ADS-B
07:20PM 41.2982 -101.6720 246° West 419 482 34,000  Level FlightAware ADS-B
07:21PM 41.2742 -101.7430 246° West 420 483 34,000  Level FlightAware ADS-B
07:21PM 41.2486 -101.8190 246° West 419 482 34,000  Level FlightAware ADS-B
07:22PM 41.2168 -101.9130 246° West 420 483 34,000  Level FlightAware ADS-B
07:22PM 41.1927 -101.9840 246° West 420 483 34,000  Level FlightAware ADS-B
07:23PM 41.1687 -102.0540 246° West 410 472 34,000  Level FlightAware ADS-B
07:23PM 41.1458 -102.1210 246° West 392 451 34,000  Level FlightAware ADS-B
07:24PM 41.1229 -102.1880 246° West 401 461 34,000  Level FlightAware ADS-B
07:24PM 41.0993 -102.2570 246° West 410 472 34,000  Level FlightAware ADS-B
07:25PM 41.0752 -102.3270 245° Southwest 418 481 34,000  Level FlightAware ADS-B
07:25PM 41.0505 -102.3990 246° West 418 481 34,000  Level FlightAware ADS-B
07:26PM 41.0263 -102.4680 245° Southwest 417 480 34,000  Level FlightAware ADS-B
07:26PM 41.0021 -102.5380 245° Southwest 417 480 34,000  Level FlightAware ADS-B
07:27PM 40.9766 -102.6120 245° Southwest 417 480 34,000  Level FlightAware ADS-B
07:27PM 40.9521 -102.6820 245° Southwest 414 476 34,000  Level FlightAware ADS-B
07:28PM 40.9273 -102.7530 245° Southwest 413 475 34,000  Level FlightAware ADS-B
07:28PM 40.9019 -102.8260 245° Southwest 413 475 34,000  Level FlightAware ADS-B
07:29PM 40.8777 -102.8940 245° Southwest 413 475 34,000  Level FlightAware ADS-B
07:29PM 40.8533 -102.9640 245° Southwest 413 475 34,000 -600 Level FlightAware ADS-B
07:30PM 40.8284 -103.0340 245° Southwest 412 474 33,400 -1,020 Descending FlightAware ADS-B
07:30PM 40.8040 -103.1040 245° Southwest 412 474 33,000 -420 Descending FlightAware ADS-B
07:31PM 40.7795 -103.1730 245° Southwest 412 474 33,000  Level FlightAware ADS-B
07:31PM 40.7545 -103.2430 245° Southwest 412 474 33,000 -120 Level FlightAware ADS-B
07:32PM 40.7299 -103.3120 245° Southwest 409 471 32,900 -720 Descending FlightAware ADS-B
07:33PM 40.7063 -103.3780 245° Southwest 393 452 32,300 -1,020 Descending FlightAware ADS-B
07:33PM 40.6836 -103.4420 245° Southwest 372 428 31,900 -900 Descending FlightAware ADS-B
07:34PM 40.6617 -103.5030 245° Southwest 366 421 31,400 -1,440 Descending FlightAware ADS-B
07:34PM 40.6400 -103.5630 245° Southwest 365 420 30,500 -1,380 Descending FlightAware ADS-B
07:35PM 40.6176 -103.6250 245° Southwest 363 418 30,000 -660 Descending FlightAware ADS-B
07:35PM 40.6062 -103.6560 244° Southwest 362 417 30,000  Level FlightAware ADS-B
07:35PM 40.6019 -103.6660 240° Southwest 361 415 30,000  Level FlightAware ADS-B
07:35PM 40.5874 -103.6870 228° Southwest 364 419 30,000  Level FlightAware ADS-B
07:35PM 40.5728 -103.7000 214° Southwest 368 423 30,000  Level FlightAware ADS-B
07:35PM 40.5662 -103.7040 205° Southwest 369 425 30,000 -600 Level FlightAware ADS-B
07:35PM 40.5563 -103.7090 201° Southwest 371 427 29,900 -600 Descending FlightAware ADS-B
07:36PM 40.5488 -103.7110 191° South 373 429 29,900 -720 Level FlightAware ADS-B
07:36PM 40.5413 -103.7130 191° South 375 432 29,800 -1,200 Descending FlightAware ADS-B
07:36PM 40.5310 -103.7130 180° South 377 434 29,700 -1,200 Descending FlightAware ADS-B
07:36PM 40.5246 -103.7120 173° South 377 434 29,600 -960 Descending FlightAware ADS-B
07:36PM 40.5085 -103.7080 169° South 378 435 29,500 -900 Descending FlightAware ADS-B
07:36PM 40.5004 -103.7040 159° South 380 437 29,400 -1,380 Descending FlightAware ADS-B
07:36PM 40.4945 -103.7000 153° Southeast 381 438 29,300 -1,500 Descending FlightAware ADS-B
07:36PM 40.4880 -103.6940 145° Southeast 381 438 29,200 -1,380 Descending FlightAware ADS-B
07:36PM 40.4810 -103.6880 147° Southeast 382 440 29,100 -600 Descending FlightAware ADS-B
07:36PM 40.4751 -103.6800 134° Southeast 383 441 29,100 -720 Level FlightAware ADS-B
07:36PM 40.4697 -103.6720 132° Southeast 383 441 29,000 -1,200 Descending FlightAware ADS-B
07:36PM 40.4638 -103.6610 125° Southeast 384 442 28,900 -1,200 Descending FlightAware ADS-B
07:37PM 40.4601 -103.6520 118° Southeast 385 443 28,800 -1,140 Descending FlightAware ADS-B
07:37PM 40.4560 -103.6390 113° Southeast 386 444 28,700 -1,020 Descending FlightAware ADS-B
07:37PM 40.4537 -103.6270 104° East 388 447 28,600 -720 Descending FlightAware ADS-B
07:37PM 40.4525 -103.6170 99° East 388 447 28,600 -780 Level FlightAware ADS-B
07:37PM 40.4520 -103.6070 94° East 388 447 28,500 -1,200 Descending FlightAware ADS-B
07:37PM 40.4524 -103.5950 87° East 389 448 28,400 -840 Descending FlightAware ADS-B
07:37PM 40.4556 -103.5730 79° East 391 450 28,300 -1,080 Descending FlightAware ADS-B
07:37PM 40.4610 -103.5560 67° East 391 450 28,100 -1,440 Descending FlightAware ADS-B
07:37PM 40.4654 -103.5460 60° Northeast 390 449 28,000 -720 Descending FlightAware ADS-B
07:37PM 40.4701 -103.5370 56° Northeast 389 448 28,000 -720 Level FlightAware ADS-B
07:37PM 40.4762 -103.5280 48° Northeast 389 448 27,900 -1,200 Descending FlightAware ADS-B
07:38PM 40.4828 -103.5200 43° Northeast 387 445 27,800 -1,200 Descending FlightAware ADS-B
07:38PM 40.5219 -103.4740 42° Northeast 376 433 27,200 -960 Descending FlightAware ADS-B
07:39PM 40.5638 -103.4240 42° Northeast 372 428 26,800 -900 Descending FlightAware ADS-B
07:39PM 40.6019 -103.3780 43° Northeast 367 422 26,300 -960 Descending FlightAware ADS-B
07:39PM 40.6190 -103.3580 42° Northeast 365 420 26,100 -900 Descending FlightAware ADS-B
07:39PM 40.6269 -103.3510 34° Northeast 365 420 26,000 -1,200 Descending FlightAware ADS-B
07:40PM 40.6337 -103.3460 29° Northeast 363 418 25,900 -1,380 Descending FlightAware ADS-B
07:40PM 40.6410 -103.3420 23° Northeast 362 417 25,800 -720 Descending FlightAware ADS-B
07:40PM 40.6473 -103.3390 20° North 361 415 25,800 -600 Level FlightAware ADS-B
07:40PM 40.6571 -103.3360 13° North 358 412 25,700 -1,200 Descending FlightAware ADS-B
07:40PM 40.6645 -103.3350 North 357 411 25,600 -1,200 Descending FlightAware ADS-B
07:40PM 40.6732 -103.3350 360° North 354 407 25,500 -1,020 Descending FlightAware ADS-B
07:40PM 40.6831 -103.3360 356° North 351 404 25,400 -1,020 Descending FlightAware ADS-B
07:40PM 40.6931 -103.3390 347° North 348 400 25,300 -960 Descending FlightAware ADS-B
07:40PM 40.7033 -103.3440 340° North 345 397 25,200 -960 Descending FlightAware ADS-B
07:40PM 40.7110 -103.3490 334° Northwest 344 396 25,100 -1,140 Descending FlightAware ADS-B
07:40PM 40.7182 -103.3550 328° Northwest 341 392 25,000 -600 Descending FlightAware ADS-B
07:41PM 40.7250 -103.3630 318° Northwest 340 391 25,000 -480 Level FlightAware ADS-B
07:41PM 40.7325 -103.3730 315° West 339 390 24,900 -600 Descending FlightAware ADS-B
07:41PM 40.7363 -103.3790 310° West 338 389 24,900 -1,200 Level FlightAware ADS-B
07:41PM 40.7421 -103.3920 300° West 338 389 24,700 -1,020 Descending FlightAware ADS-B
07:41PM 40.7505 -103.4230 290° West 335 386 24,500 -720 Descending FlightAware ADS-B
07:41PM 40.7519 -103.4390 277° West 335 386 24,400 -1,140 Descending FlightAware ADS-B
07:41PM 40.7519 -103.4450 270° West 335 386 24,300 -1,200 Descending FlightAware ADS-B
07:41PM 40.7508 -103.4610 265° West 334 384 24,200 -960 Descending FlightAware ADS-B
07:41PM 40.7488 -103.4720 257° West 336 387 24,100 -960 Descending FlightAware ADS-B
07:42PM 40.7452 -103.4850 250° West 337 388 24,000 -420 Descending FlightAware ADS-B
07:42PM 40.7387 -103.5020 243° Southwest 340 391 24,000  Level FlightAware ADS-B
07:42PM 40.7345 -103.5090 232° Southwest 341 392 24,000  Level FlightAware ADS-B
07:42PM 40.7268 -103.5210 230° Southwest 344 396 24,000  Level FlightAware ADS-B
07:42PM 40.6915 -103.5630 222° Southwest 345 397 24,000  Level FlightAware ADS-B
07:43PM 40.6554 -103.6060 222° Southwest 344 396 24,000  Level FlightAware ADS-B
07:43PM 40.6175 -103.6510 222° Southwest 348 400 24,000  Level FlightAware ADS-B
07:44PM 40.5994 -103.6730 223° Southwest 348 400 24,000  Level FlightAware ADS-B
07:44PM 40.5950 -103.6770 215° Southwest 348 400 24,000 -720 Level FlightAware ADS-B
07:44PM 40.5878 -103.6830 212° Southwest 347 399 23,900 -1,020 Descending FlightAware ADS-B
07:44PM 40.5778 -103.6890 204° Southwest 346 398 23,800 -1,140 Descending FlightAware ADS-B
07:44PM 40.5717 -103.6920 200° South 346 398 23,700 -1,380 Descending FlightAware ADS-B
07:44PM 40.5639 -103.6930 186° South 346 398 23,600 -720 Descending FlightAware ADS-B
07:44PM 40.5570 -103.6940 186° South 345 397 23,600 -720 Level FlightAware ADS-B
07:44PM 40.5491 -103.6940 180° South 346 398 23,500 -1,200 Descending FlightAware ADS-B
07:44PM 40.5414 -103.6920 169° South 347 399 23,400 -1,200 Descending FlightAware ADS-B
07:44PM 40.5337 -103.6890 164° South 347 399 23,300 -1,380 Descending FlightAware ADS-B
07:45PM 40.5275 -103.6860 160° South 347 399 23,200 -900 Descending FlightAware ADS-B
07:45PM 40.5232 -103.6830 152° Southeast 348 400 23,200 -780 Level FlightAware ADS-B
07:45PM 40.5170 -103.6780 148° Southeast 348 400 23,100 -960 Descending FlightAware ADS-B
07:45PM 40.5064 -103.6670 142° Southeast 347 399 23,000 -1,200 Descending FlightAware ADS-B
07:45PM 40.4991 -103.6550 129° Southeast 346 398 22,800 -960 Descending FlightAware ADS-B
07:45PM 40.4948 -103.6450 119° Southeast 346 398 22,800 -600 Level FlightAware ADS-B
07:45PM 40.4919 -103.6370 115° Southeast 344 396 22,700 -1,500 Descending FlightAware ADS-B
07:45PM 40.4898 -103.6290 109° East 342 394 22,600 -1,140 Descending FlightAware ADS-B
07:45PM 40.4878 -103.6160 101° East 341 392 22,500 -600 Descending FlightAware ADS-B
07:45PM 40.4873 -103.6090 95° East 340 391 22,500 -1,140 Level FlightAware ADS-B
07:45PM 40.4879 -103.5920 87° East 339 390 22,300 -1,200 Descending FlightAware ADS-B
07:46PM 40.4902 -103.5780 78° East 339 390 22,200 -1,200 Descending FlightAware ADS-B
07:46PM 40.4918 -103.5720 71° East 340 391 22,100 -1,020 Descending FlightAware ADS-B
07:46PM 40.4978 -103.5560 64° Northeast 340 391 22,000 -540 Descending FlightAware ADS-B
07:46PM 40.5011 -103.5500 54° Northeast 341 392 22,000  Level FlightAware ADS-B
07:46PM 40.5074 -103.5400 50° Northeast 342 394 22,000  Level FlightAware ADS-B
07:46PM 40.5429 -103.4980 42° Northeast 342 394 22,000  Level FlightAware ADS-B
07:47PM 40.5785 -103.4560 42° Northeast 342 394 22,000 -420 Level FlightAware ADS-B
07:47PM 40.6141 -103.4130 43° Northeast 342 394 21,600 -900 Descending FlightAware ADS-B
07:48PM 40.6348 -103.3880 43° Northeast 339 390 21,300 -1,080 Descending FlightAware ADS-B
07:48PM 40.6418 -103.3810 37° Northeast 338 389 21,200 -1,020 Descending FlightAware ADS-B
07:48PM 40.6503 -103.3750 28° Northeast 337 388 21,100 -600 Descending FlightAware ADS-B
07:48PM 40.6578 -103.3710 22° Northeast 336 387 21,100 -540 Level FlightAware ADS-B
07:48PM 40.6676 -103.3680 13° North 335 386 21,000 -1,200 Descending FlightAware ADS-B
07:48PM 40.6790 -103.3670 North 333 383 20,800 -1,140 Descending FlightAware ADS-B
07:48PM 40.6837 -103.3670 360° North 333 383 20,800 -1,020 Level FlightAware ADS-B
07:48PM 40.6890 -103.3680 352° North 332 382 20,700 -900 Descending FlightAware ADS-B
07:48PM 40.6951 -103.3690 353° North 332 382 20,700 -720 Level FlightAware ADS-B
07:49PM 40.7023 -103.3720 342° North 331 381 20,600 -1,380 Descending FlightAware ADS-B
07:49PM 40.7080 -103.3750 338° Northwest 331 381 20,500 -1,500 Descending FlightAware ADS-B
07:49PM 40.7137 -103.3790 332° Northwest 329 379 20,400 -720 Descending FlightAware ADS-B
07:49PM 40.7195 -103.3840 327° Northwest 329 379 20,400 -720 Level FlightAware ADS-B
07:49PM 40.7246 -103.3890 323° Northwest 328 377 20,300 -1,380 Descending FlightAware ADS-B
07:49PM 40.7299 -103.3960 315° West 327 376 20,200 -1,380 Descending FlightAware ADS-B
07:49PM 40.7337 -103.4020 310° West 327 376 20,100 -780 Descending FlightAware ADS-B
07:49PM 40.7372 -103.4090 303° West 327 376 20,100 -780 Level FlightAware ADS-B
07:49PM 40.7400 -103.4160 298° West 325 374 20,000 -720 Descending FlightAware ADS-B
07:49PM 40.7431 -103.4250 294° West 323 372 20,000  Level FlightAware ADS-B
07:49PM 40.7456 -103.4360 287° West 322 371 20,000  Level FlightAware ADS-B
07:49PM 40.7472 -103.4530 277° West 322 371 20,000  Level FlightAware ADS-B
07:50PM 40.7468 -103.4680 268° West 323 372 20,000  Level FlightAware ADS-B
07:50PM 40.7458 -103.4760 261° West 323 372 20,000  Level FlightAware ADS-B
07:50PM 40.7443 -103.4830 254° West 324 373 20,000  Level FlightAware ADS-B
07:50PM 40.7411 -103.4940 249° West 324 373 20,000  Level FlightAware ADS-B
07:50PM 40.7352 -103.5080 241° Southwest 325 374 20,000  Level FlightAware ADS-B
07:50PM 40.7267 -103.5210 229° Southwest 325 374 20,000  Level FlightAware ADS-B
07:51PM 40.6816 -103.5750 222° Southwest 325 374 20,000  Level FlightAware ADS-B
07:51PM 40.6479 -103.6150 222° Southwest 329 379 20,000  Level FlightAware ADS-B
07:52PM 40.5811 -103.6860 219° Southwest 331 381 20,000  Level FlightAware ADS-B
07:52PM 40.5728 -103.6890 195° South 331 381 20,000  Level FlightAware ADS-B
07:52PM 40.5640 -103.6900 185° South 332 382 20,000  Level FlightAware ADS-B
07:52PM 40.5523 -103.6890 176° South 331 381 20,000  Level FlightAware ADS-B
07:53PM 40.5402 -103.6840 163° South 331 381 20,000  Level FlightAware ADS-B
07:53PM 40.5280 -103.6750 151° Southeast 329 379 20,000  Level FlightAware ADS-B
07:53PM 40.5205 -103.6660 138° Southeast 328 377 20,000  Level FlightAware ADS-B
07:53PM 40.5155 -103.6580 129° Southeast 327 376 20,000  Level FlightAware ADS-B
07:53PM 40.5118 -103.6500 121° Southeast 326 375 20,000  Level FlightAware ADS-B
07:53PM 40.5079 -103.6380 113° Southeast 325 374 20,000  Level FlightAware ADS-B
07:53PM 40.5063 -103.6310 107° East 325 374 20,000  Level FlightAware ADS-B
07:53PM 40.5053 -103.6220 98° East 324 373 20,000  Level FlightAware ADS-B
07:53PM 40.5051 -103.6130 92° East 324 373 20,000  Level FlightAware ADS-B
07:54PM 40.5072 -103.5940 82° East 324 373 20,000  Level FlightAware ADS-B
07:54PM 40.5089 -103.5870 72° East 323 372 20,000  Level FlightAware ADS-B
07:54PM 40.5132 -103.5760 63° Northeast 323 372 20,000  Level FlightAware ADS-B
07:54PM 40.5208 -103.5620 54° Northeast 324 373 20,000  Level FlightAware ADS-B
07:54PM 40.5562 -103.5200 42° Northeast 325 374 20,000  Level FlightAware ADS-B
07:55PM 40.5902 -103.4800 42° Northeast 323 372 20,000  Level FlightAware ADS-B
07:55PM 40.6236 -103.4400 42° Northeast 323 372 20,000  Level FlightAware ADS-B
07:56PM 40.6522 -103.4060 42° Northeast 324 373 20,000  Level FlightAware ADS-B
07:56PM 40.6567 -103.4020 34° Northeast 325 374 20,000  Level FlightAware ADS-B
07:56PM 40.6607 -103.3990 30° Northeast 325 374 20,000  Level FlightAware ADS-B
07:56PM 40.6673 -103.3950 25° Northeast 326 375 20,000  Level FlightAware ADS-B
07:56PM 40.6717 -103.3940 10° North 327 376 20,000  Level FlightAware ADS-B
07:56PM 40.6795 -103.3920 11° North 327 376 20,000  Level FlightAware ADS-B
07:56PM 40.6853 -103.3910 North 328 377 20,000  Level FlightAware ADS-B
07:56PM 40.6912 -103.3910 360° North 327 376 20,000  Level FlightAware ADS-B
07:56PM 40.6991 -103.3930 349° North 328 377 20,000  Level FlightAware ADS-B
07:56PM 40.7048 -103.3950 345° North 328 377 20,000  Level FlightAware ADS-B
07:57PM 40.7117 -103.3990 336° Northwest 328 377 20,000  Level FlightAware ADS-B
07:57PM 40.7173 -103.4030 332° Northwest 328 377 20,000  Level FlightAware ADS-B
07:57PM 40.7233 -103.4090 323° Northwest 327 376 20,000  Level FlightAware ADS-B
07:57PM 40.7275 -103.4140 318° Northwest 325 374 20,000  Level FlightAware ADS-B
07:57PM 40.7333 -103.4230 310° West 322 371 20,000  Level FlightAware ADS-B
07:57PM 40.7373 -103.4310 303° West 320 368 20,000  Level FlightAware ADS-B
07:57PM 40.7392 -103.4370 293° West 318 366 20,000  Level FlightAware ADS-B
07:57PM 40.7422 -103.4490 288° West 313 360 20,000  Level FlightAware ADS-B
07:57PM 40.7433 -103.4560 282° West 312 359 20,000  Level FlightAware ADS-B
07:57PM 40.7438 -103.4630 275° West 309 356 20,000  Level FlightAware ADS-B
07:57PM 40.7436 -103.4740 269° West 308 354 20,000  Level FlightAware ADS-B
07:57PM 40.7425 -103.4830 261° West 308 354 20,000  Level FlightAware ADS-B
07:57PM 40.7404 -103.4930 255° West 309 356 20,000  Level FlightAware ADS-B
07:58PM 40.7385 -103.4990 247° West 310 357 20,000  Level FlightAware ADS-B
07:58PM 40.7352 -103.5070 241° Southwest 310 357 20,000  Level FlightAware ADS-B
07:58PM 40.7305 -103.5160 235° Southwest 311 358 20,000  Level FlightAware ADS-B
07:58PM 40.7256 -103.5230 227° Southwest 310 357 20,000  Level FlightAware ADS-B
07:58PM 40.7042 -103.5480 222° Southwest 312 359 20,000  Level FlightAware ADS-B
07:59PM 40.6683 -103.5910 222° Southwest 314 361 20,000  Level FlightAware ADS-B
07:59PM 40.6354 -103.6300 222° Southwest 314 361 20,000  Level FlightAware ADS-B
08:00PM 40.5882 -103.6820 220° Southwest 314 361 20,000  Level FlightAware ADS-B
08:00PM 40.5743 -103.6880 198° South 314 361 20,000  Level FlightAware ADS-B
08:00PM 40.5671 -103.6880 180° South 314 361 20,000  Level FlightAware ADS-B
08:00PM 40.5603 -103.6880 180° South 312 359 20,000  Level FlightAware ADS-B
08:00PM 40.5498 -103.6850 168° South 311 358 20,000  Level FlightAware ADS-B
08:00PM 40.5435 -103.6810 154° Southeast 311 358 20,000  Level FlightAware ADS-B
08:01PM 40.5347 -103.6740 149° Southeast 310 357 20,000  Level FlightAware ADS-B
08:01PM 40.5312 -103.6700 139° Southeast 309 356 20,000  Level FlightAware ADS-B
08:01PM 40.5265 -103.6640 136° Southeast 308 354 20,000  Level FlightAware ADS-B
08:01PM 40.5227 -103.6570 126° Southeast 308 354 20,000  Level FlightAware ADS-B
08:01PM 40.5200 -103.6510 121° Southeast 307 353 20,000  Level FlightAware ADS-B
08:01PM 40.5178 -103.6440 112° Southeast 306 352 20,000  Level FlightAware ADS-B
08:01PM 40.5152 -103.6310 105° East 305 351 20,000  Level FlightAware ADS-B
08:01PM 40.5146 -103.6170 93° East 304 350 20,000  Level FlightAware ADS-B
08:01PM 40.5162 -103.6030 81° East 305 351 20,000  Level FlightAware ADS-B
08:01PM 40.5176 -103.5970 73° East 305 351 20,000  Level FlightAware ADS-B
08:01PM 40.5200 -103.5900 66° East 305 351 20,000  Level FlightAware ADS-B
08:01PM 40.5235 -103.5820 60° Northeast 305 351 20,000  Level FlightAware ADS-B
08:02PM 40.5320 -103.5690 49° Northeast 306 352 20,000  Level FlightAware ADS-B
08:02PM 40.5643 -103.5310 42° Northeast 309 356 20,000  Level FlightAware ADS-B
08:03PM 40.5975 -103.4910 42° Northeast 307 353 20,000  Level FlightAware ADS-B
08:03PM 40.6291 -103.4530 42° Northeast 309 356 20,000  Level FlightAware ADS-B
08:04PM 40.6561 -103.4210 42° Northeast 309 356 20,000  Level FlightAware ADS-B
08:04PM 40.6642 -103.4140 33° Northeast 308 354 20,000  Level FlightAware ADS-B
08:04PM 40.6699 -103.4100 28° Northeast 312 359 20,000  Level FlightAware ADS-B
08:04PM 40.6864 -103.4020 20° North 324 373 20,000  Level FlightAware ADS-B
08:04PM 40.6920 -103.3990 22° Northeast 328 377 20,000  Level FlightAware ADS-B
08:04PM 40.6980 -103.3940 32° Northeast 333 383 20,000  Level FlightAware ADS-B
08:04PM 40.7059 -103.3840 44° Northeast 342 394 20,000  Level FlightAware ADS-B
08:04PM 40.7123 -103.3720 55° Northeast 351 404 20,000  Level FlightAware ADS-B
08:04PM 40.7156 -103.3630 64° Northeast 357 411 20,000  Level FlightAware ADS-B
08:05PM 40.7195 -103.3410 77° East 369 425 20,000  Level FlightAware ADS-B
08:05PM 40.7198 -103.3300 88° East 374 430 20,000  Level FlightAware ADS-B
08:05PM 40.7189 -103.3190 96° East 379 436 20,000  Level FlightAware ADS-B
08:05PM 40.7166 -103.3060 103° East 385 443 20,000  Level FlightAware ADS-B
08:05PM 40.7079 -103.2820 116° Southeast 393 452 20,000  Level FlightAware ADS-B
08:05PM 40.7033 -103.2740 127° Southeast 397 457 20,000  Level FlightAware ADS-B
08:05PM 40.6935 -103.2610 135° Southeast 402 463 20,000  Level FlightAware ADS-B
08:06PM 40.6516 -103.2100 137° Southeast 415 478 20,000  Level FlightAware ADS-B
08:06PM 40.6086 -103.1580 137° Southeast 417 480 20,000  Level FlightAware ADS-B
08:07PM 40.5661 -103.1050 137° Southeast 417 480 20,000 240 Level FlightAware ADS-B
08:07PM 40.5206 -103.0490 137° Southeast 419 482 20,300 720 Climbing FlightAware ADS-B
08:08PM 40.4775 -102.9960 137° Southeast 425 489 20,800 660 Climbing FlightAware ADS-B
08:08PM 40.4341 -102.9430 137° Southeast 427 491 21,000 180 Climbing FlightAware ADS-B
08:09PM 40.3901 -102.8890 137° Southeast 428 493 21,000  Level FlightAware ADS-B
08:09PM 40.3466 -102.8360 137° Southeast 428 493 21,000  Level FlightAware ADS-B
08:10PM 40.3017 -102.7820 137° Southeast 430 495 21,000  Level FlightAware ADS-B
08:10PM 40.2574 -102.7280 137° Southeast 430 495 21,000  Level FlightAware ADS-B
08:11PM 40.2399 -102.7070 138° Southeast 429 494 21,000  Level FlightAware ADS-B
08:11PM 40.2340 -102.7010 142° Southeast 429 494 21,000  Level FlightAware ADS-B
08:11PM 40.2250 -102.6930 146° Southeast 428 493 21,000  Level FlightAware ADS-B
08:11PM 40.2123 -102.6860 157° South 427 491 21,000  Level FlightAware ADS-B
08:11PM 40.2035 -102.6830 165° South 426 490 21,000  Level FlightAware ADS-B
08:11PM 40.1890 -102.6810 174° South 426 490 21,000  Level FlightAware ADS-B
08:11PM 40.1754 -102.6820 183° South 426 490 21,000  Level FlightAware ADS-B
08:12PM 40.1153 -102.6930 188° South 426 490 21,000  Level FlightAware ADS-B
08:12PM 40.0560 -102.7040 188° South 425 489 21,000  Level FlightAware ADS-B
08:13PM 39.9976 -102.7160 189° South 424 488 21,000  Level FlightAware ADS-B
08:13PM 39.9375 -102.7270 188° South 423 487 21,000  Level FlightAware ADS-B
08:14PM 39.8783 -102.7380 188° South 423 487 21,000  Level FlightAware ADS-B
08:14PM 39.8196 -102.7500 189° South 423 487 21,000  Level FlightAware ADS-B
08:15PM 39.7588 -102.7620 189° South 425 489 21,000  Level FlightAware ADS-B
08:15PM 39.6996 -102.7730 188° South 426 490 21,000  Level FlightAware ADS-B
08:16PM 39.6401 -102.7830 187° South 427 491 21,000  Level FlightAware ADS-B
08:16PM 39.5809 -102.7940 188° South 428 493 21,000  Level FlightAware ADS-B
08:17PM 39.5195 -102.8050 188° South 429 494 21,000  Level FlightAware ADS-B
08:17PM 39.4586 -102.8160 188° South 430 495 21,000  Level FlightAware ADS-B
08:18PM 39.3993 -102.8280 189° South 431 496 21,000  Level FlightAware ADS-B
08:18PM 39.3392 -102.8400 189° South 430 495 21,000  Level FlightAware ADS-B
08:19PM 39.2775 -102.8520 189° South 430 495 21,000  Level FlightAware ADS-B
08:19PM 39.2178 -102.8630 188° South 429 494 21,000  Level FlightAware ADS-B
08:20PM 39.1736 -102.8720 189° South 429 494 21,000  Level FlightAware ADS-B
08:20PM 39.1545 -102.8780 194° South 429 494 21,000  Level FlightAware ADS-B
08:20PM 39.1468 -102.8820 202° Southwest 429 494 21,000  Level FlightAware ADS-B
08:20PM 39.1343 -102.8910 209° Southwest 430 495 21,000  Level FlightAware ADS-B
08:20PM 39.1239 -102.9020 219° Southwest 430 495 21,000  Level FlightAware ADS-B
08:20PM 39.1170 -102.9110 225° Southwest 430 495 21,000  Level FlightAware ADS-B
08:20PM 39.1097 -102.9240 234° Southwest 430 495 21,000  Level FlightAware ADS-B
08:21PM 39.0982 -102.9520 242° Southwest 429 494 21,000  Level FlightAware ADS-B
08:21PM 39.0948 -102.9650 251° West 428 493 21,000  Level FlightAware ADS-B
08:21PM 39.0914 -102.9870 259° West 427 491 21,000  Level FlightAware ADS-B
08:21PM 39.0907 -103.0050 267° West 427 491 21,000  Level FlightAware ADS-B
08:21PM 39.0921 -103.0250 275° West 426 490 21,000  Level FlightAware ADS-B
08:21PM 39.0944 -103.0390 282° West 426 490 21,000  Level FlightAware ADS-B
08:21PM 39.0973 -103.0510 287° West 425 489 21,000  Level FlightAware ADS-B
08:22PM 39.1210 -103.1200 294° West 426 490 21,000  Level FlightAware ADS-B
08:22PM 39.1458 -103.1930 294° West 448 516 21,000  Level FlightAware ADS-B
08:23PM 39.1721 -103.2700 294° West 461 531 21,000  Level FlightAware ADS-B
08:23PM 39.1978 -103.3460 294° West 462 532 21,000  Level FlightAware ADS-B
08:24PM 39.2236 -103.4230 293° West 462 532 21,000  Level FlightAware ADS-B
08:24PM 39.2492 -103.4990 294° West 461 531 21,000  Level FlightAware ADS-B
08:25PM 39.2745 -103.5740 294° West 451 519 21,000 -1,200 Level FlightAware ADS-B
08:25PM 39.2992 -103.6480 293° West 442 509 19,800 -2,220 Descending FlightAware ADS-B
08:26PM 39.3233 -103.7190 294° West 426 490 18,800 -2,220 Descending FlightAware ADS-B
08:26PM 39.3467 -103.7890 293° West 416 479 17,600 -1,740 Descending FlightAware ADS-B
08:27PM 39.3690 -103.8560 293° West 392 451 17,100 -720 Descending FlightAware ADS-B
08:27PM 39.3896 -103.9170 294° West 360 414 16,900 -300 Descending FlightAware ADS-B
08:27PM 39.3951 -103.9410 287° West 348 400 16,900 -360 Level FlightAware ADS-B
08:28PM 39.3970 -103.9530 282° West 342 394 16,800 -480 Descending FlightAware ADS-B
08:28PM 39.3985 -103.9690 277° West 339 390 16,800 -1,440 Level FlightAware ADS-B
08:28PM 39.4009 -104.0300 273° West 341 392 15,900 -1,740 Descending FlightAware ADS-B
08:29PM 39.4037 -104.0930 273° West 347 399 15,100 -1,680 Descending FlightAware ADS-B
08:29PM 39.4067 -104.1550 274° West 343 395 14,200 -1,680 Descending FlightAware ADS-B
08:30PM 39.4094 -104.2160 273° West 327 376 13,400 -1,020 Descending FlightAware ADS-B
08:30PM 39.4113 -104.2710 273° West 299 344 13,200 -720 Descending FlightAware ADS-B
08:31PM 39.4137 -104.3250 273° West 284 327 12,700 -840 Descending FlightAware ADS-B
08:31PM 39.4160 -104.3770 273° West 292 336 12,400 -1,200 Descending FlightAware ADS-B
08:32PM 39.4182 -104.4310 273° West 308 354 11,500 -1,680 Descending FlightAware ADS-B
08:32PM 39.4211 -104.4880 274° West 311 358 10,700 -1,740 Descending FlightAware ADS-B
08:32PM 39.4223 -104.5040 276° West 311 358 10,400 -1,620 Descending FlightAware ADS-B
08:33PM 39.4246 -104.5160 284° West 311 358 10,300 -1,320 Descending FlightAware ADS-B
08:33PM 39.4285 -104.5280 293° West 310 357 10,100 -2,220 Descending FlightAware ADS-B
08:33PM 39.4318 -104.5340 305° West 311 358 9,900 -2,220 Descending FlightAware ADS-B
08:33PM 39.4378 -104.5450 305° West 311 358 9,700 -1,380 Descending FlightAware ADS-B
08:33PM 39.4473 -104.5610 308° West 304 350 9,500 -1,200 Descending FlightAware ADS-B
08:33PM 39.4598 -104.5830 306° West 295 339 9,200 -1,200 Descending FlightAware ADS-B
08:33PM 39.4682 -104.5960 310° West 290 334 9,000 -480 Descending FlightAware ADS-B
08:34PM 39.4816 -104.6150 312° West 280 322 9,000  Level FlightAware ADS-B
08:34PM 39.4854 -104.6200 315° West 282 325 9,000  Level FlightAware ADS-B
08:34PM 39.4886 -104.6240 316° Northwest 284 327 9,000  Level FlightAware ADS-B
08:34PM 39.4921 -104.6270 327° Northwest 285 328 9,000  Level FlightAware ADS-B
08:34PM 39.4991 -104.6320 331° Northwest 288 331 9,000  Level FlightAware ADS-B
08:34PM 39.5036 -104.6350 333° Northwest 288 331 9,000  Level FlightAware ADS-B
08:34PM 39.5097 -104.6370 346° North 290 334 9,000 -360 Level FlightAware ADS-B
08:34PM 39.5289 -104.6430 346° North 284 327 8,900 -300 Descending FlightAware ADS-B
08:34PM 39.5360 -104.6450 348° North 279 321 8,900  Level FlightAware ADS-B
08:35PM 39.5467 -104.6450 360° North 275 316 8,900  Level FlightAware ADS-B
08:35PM 39.5523 -104.6450 360° North 272 313 8,900 240 Level FlightAware ADS-B
08:35PM 39.5723 -104.6450 360° North 260 299 9,000 120 Climbing FlightAware ADS-B
08:35PM 39.5955 -104.6440 North 254 292 9,000 -240 Level FlightAware ADS-B
08:35PM 39.6099 -104.6440 360° North 252 290 8,900 -240 Descending FlightAware ADS-B
08:36PM 39.6282 -104.6440 360° North 239 275 8,900 -360 Level FlightAware ADS-B
08:36PM 39.6537 -104.6440 360° North 237 273 8,700 -960 Descending FlightAware ADS-B
08:36PM 39.6715 -104.6440 360° North 242 278 8,300 -1,320 Descending FlightAware ADS-B
08:37PM 39.6886 -104.6440 360° North 239 275 8,000 -1,140 Descending FlightAware ADS-B
08:37PM 39.7077 -104.6430 North 230 265 7,700 -1,320 Descending FlightAware ADS-B
08:37PM 39.7188 -104.6430 360° North 225 259 7,400 -1,200 Descending FlightAware ADS-B
08:37PM 39.7343 -104.6430 360° North 215 247 7,200 -1,080 Descending FlightAware ADS-B
08:38PM 39.7528 -104.6430 360° North 198 228 6,800 -1,080 Descending FlightAware ADS-B
08:38PM 39.7661 -104.6430 360° North 185 213 6,600 -900 Descending FlightAware ADS-B
08:38PM 39.7822 -104.6420 North 167 192 6,300 -900 Descending FlightAware ADS-B
08:39PM 39.7935 -104.6420 360° North 155 178 6,100 -780 Descending FlightAware ADS-B
08:39PM 39.7996 -104.6420 360° North 148 170 6,000 -780 Descending FlightAware ADS-B
08:39PM 39.8100 -104.6420 360° North 147 169 5,800 -780 Descending FlightAware ADS-B
08:39PM 39.8203 -104.6420 360° North 148 170 5,600 -780 Descending FlightAware ADS-B